UAL870 YSSY-KSFO
Flight info
| Callsign | UAL870 |
|---|---|
| Flight time | N/A |
| Altitude | 39000 |
| Route | OLSEM Y193 BNA DCT LAMSI DCT HARVS DCT 20S160E 18S163E 12S170E DCT ATRAS/N0502F330 DCT 05S176W 02S170W/N0496F350 03N160W 10N155W 15N150W/N0487F370 21N140W 26N135W/N0481F390 31N130W DCT MAFIC A220 CINNY PIRAT3 |
| Aircraft | B744/H-SDE3FGHIM1M2RWXY/LB1 |
Departure
| Time | 2026-05-05 03:01 |
|---|---|
| Airport | Sydney Kingsford Smith International Airport (YSSY) |
Arrival
| Time | N/A |
|---|---|
| Airport | San Francisco International Airport (KSFO) |
| Time | Latitude | Longitude | Altitude | Speed | Heading |
|---|---|---|---|---|---|
| 2026-05-05 01:58 | -33.93826 | 151.16628 | 34 ft | 0 kts | 254° |
| 2026-05-05 02:44 | -33.93825 | 151.16630 | 34 ft | 1 kts | 254° |
| 2026-05-05 02:44 | -33.93822 | 151.16646 | 34 ft | 2 kts | 258° |
| 2026-05-05 02:44 | -33.93821 | 151.16663 | 34 ft | 2 kts | 278° |
| 2026-05-05 02:45 | -33.93824 | 151.16681 | 34 ft | 2 kts | 274° |
| 2026-05-05 02:45 | -33.93822 | 151.16696 | 34 ft | 2 kts | 239° |
| 2026-05-05 02:45 | -33.93814 | 151.16706 | 34 ft | 2 kts | 203° |
| 2026-05-05 02:45 | -33.93802 | 151.16709 | 34 ft | 2 kts | 189° |
| 2026-05-05 02:46 | -33.93799 | 151.16710 | 34 ft | 2 kts | 192° |
| 2026-05-05 02:46 | -33.93823 | 151.16715 | 34 ft | 4 kts | 152° |
| 2026-05-05 02:46 | -33.93843 | 151.16734 | 34 ft | 4 kts | 142° |
| 2026-05-05 02:46 | -33.93868 | 151.16751 | 34 ft | 4 kts | 156° |
| 2026-05-05 02:47 | -33.93894 | 151.16763 | 34 ft | 4 kts | 163° |
| 2026-05-05 02:47 | -33.93917 | 151.16771 | 34 ft | 4 kts | 165° |
| 2026-05-05 02:47 | -33.93939 | 151.16778 | 34 ft | 0 kts | 164° |
| 2026-05-05 02:50 | -33.93944 | 151.16780 | 34 ft | 4 kts | 164° |
| 2026-05-05 02:50 | -33.93968 | 151.16788 | 34 ft | 3 kts | 164° |
| 2026-05-05 02:50 | -33.93990 | 151.16795 | 34 ft | 3 kts | 164° |
| 2026-05-05 02:51 | -33.94011 | 151.16802 | 34 ft | 3 kts | 164° |
| 2026-05-05 02:51 | -33.94030 | 151.16811 | 34 ft | 3 kts | 153° |
| 2026-05-05 02:51 | -33.94046 | 151.16825 | 34 ft | 3 kts | 132° |
| 2026-05-05 02:51 | -33.94055 | 151.16848 | 34 ft | 4 kts | 103° |
| 2026-05-05 02:52 | -33.94051 | 151.16888 | 34 ft | 7 kts | 72° |
| 2026-05-05 02:52 | -33.94029 | 151.16976 | 34 ft | 13 kts | 73° |
| 2026-05-05 02:52 | -33.94003 | 151.17078 | 34 ft | 13 kts | 73° |
| 2026-05-05 02:52 | -33.93976 | 151.17175 | 34 ft | 12 kts | 56° |
| 2026-05-05 02:53 | -33.93903 | 151.17207 | 34 ft | 12 kts | 349° |
| 2026-05-05 02:53 | -33.93826 | 151.17187 | 34 ft | 11 kts | 347° |
| 2026-05-05 02:53 | -33.93752 | 151.17168 | 34 ft | 11 kts | 347° |
| 2026-05-05 02:53 | -33.93682 | 151.17149 | 34 ft | 10 kts | 347° |
| 2026-05-05 02:54 | -33.93628 | 151.17135 | 34 ft | 5 kts | 348° |
| 2026-05-05 02:54 | -33.93600 | 151.17128 | 34 ft | 2 kts | 348° |
| 2026-05-05 02:57 | -33.93552 | 151.17115 | 34 ft | 14 kts | 348° |
| 2026-05-05 02:57 | -33.93418 | 151.17082 | 34 ft | 25 kts | 347° |
| 2026-05-05 02:57 | -33.93244 | 151.16965 | 34 ft | 28 kts | 328° |
| 2026-05-05 02:58 | -33.93112 | 151.16922 | 34 ft | 3 kts | 349° |
| 2026-05-05 02:58 | -33.93101 | 151.16920 | 34 ft | 0 kts | 349° |
| 2026-05-05 02:59 | -33.93076 | 151.16915 | 34 ft | 7 kts | 350° |
| 2026-05-05 02:59 | -33.93025 | 151.16913 | 34 ft | 9 kts | 14° |
| 2026-05-05 02:59 | -33.92971 | 151.17004 | 34 ft | 18 kts | 76° |
| 2026-05-05 03:00 | -33.92971 | 151.17149 | 34 ft | 17 kts | 128° |
| 2026-05-05 03:00 | -33.93059 | 151.17195 | 34 ft | 5 kts | 169° |
| 2026-05-05 03:00 | -33.93068 | 151.17197 | 34 ft | 5 kts | 169° |
| 2026-05-05 03:00 | -33.93225 | 151.17234 | 34 ft | 52 kts | 169° |
| 2026-05-05 03:01 | -33.93798 | 151.17382 | 34 ft | 116 kts | 168° |
| 2026-05-05 03:01 | -33.94794 | 151.17639 | 34 ft | 175 kts | 169° |
| 2026-05-05 03:01 | -33.96137 | 151.18000 | 163 ft | 210 kts | 167° |
| 2026-05-05 03:01 | -33.97572 | 151.18411 | 812 ft | 213 kts | 168° |
| 2026-05-05 03:02 | -33.99021 | 151.18876 | 1483 ft | 217 kts | 168° |
| 2026-05-05 03:02 | -34.00468 | 151.19333 | 2260 ft | 211 kts | 170° |
| 2026-05-05 03:02 | -34.01849 | 151.19310 | 3097 ft | 193 kts | 203° |
| 2026-05-05 03:02 | -34.02886 | 151.18326 | 3704 ft | 195 kts | 234° |
| 2026-05-05 03:03 | -34.03365 | 151.16790 | 4196 ft | 201 kts | 262° |
| 2026-05-05 03:03 | -34.03148 | 151.15109 | 4615 ft | 209 kts | 287° |
| 2026-05-05 03:03 | -34.02320 | 151.13667 | 5152 ft | 212 kts | 310° |
| 2026-05-05 03:03 | -34.01579 | 151.12981 | 5520 ft | 213 kts | 322° |
| 2026-05-05 03:04 | -34.00159 | 151.12441 | 5726 ft | 219 kts | 351° |
| 2026-05-05 03:04 | -33.98641 | 151.12657 | 5934 ft | 223 kts | 5° |
| 2026-05-05 03:04 | -33.97142 | 151.13261 | 6053 ft | 231 kts | 13° |
| 2026-05-05 03:04 | -33.95582 | 151.13964 | 6041 ft | 249 kts | 15° |
| 2026-05-05 03:05 | -33.93912 | 151.14744 | 6035 ft | 266 kts | 17° |
| 2026-05-05 03:05 | -33.92118 | 151.15589 | 6022 ft | 288 kts | 18° |
| 2026-05-05 03:05 | -33.90187 | 151.16501 | 6010 ft | 305 kts | 18° |
| 2026-05-05 03:05 | -33.88214 | 151.17431 | 5997 ft | 311 kts | 18° |
| 2026-05-05 03:06 | -33.86203 | 151.18378 | 6001 ft | 311 kts | 18° |
| 2026-05-05 03:06 | -33.84196 | 151.19324 | 5996 ft | 309 kts | 18° |
| 2026-05-05 03:06 | -33.82190 | 151.20268 | 6119 ft | 312 kts | 18° |
| 2026-05-05 03:06 | -33.80172 | 151.21212 | 6749 ft | 308 kts | 18° |
| 2026-05-05 03:07 | -33.78188 | 151.22144 | 7413 ft | 305 kts | 18° |
| 2026-05-05 03:07 | -33.76214 | 151.23073 | 7983 ft | 306 kts | 18° |
| 2026-05-05 03:07 | -33.74230 | 151.24004 | 8471 ft | 309 kts | 17° |
| 2026-05-05 03:07 | -33.72208 | 151.24951 | 8872 ft | 314 kts | 18° |
| 2026-05-05 03:08 | -33.70170 | 151.25907 | 9386 ft | 316 kts | 17° |
| 2026-05-05 03:08 | -33.68110 | 151.26875 | 9864 ft | 319 kts | 17° |
| 2026-05-05 03:08 | -33.66030 | 151.27850 | 10307 ft | 324 kts | 17° |
| 2026-05-05 03:08 | -33.63895 | 151.28850 | 10531 ft | 337 kts | 17° |
| 2026-05-05 03:09 | -33.61650 | 151.29899 | 10650 ft | 354 kts | 17° |
| 2026-05-05 03:09 | -33.59299 | 151.30998 | 10780 ft | 371 kts | 17° |
| 2026-05-05 03:09 | -33.56832 | 151.32150 | 10908 ft | 389 kts | 17° |
| 2026-05-05 03:09 | -33.54275 | 151.33344 | 11297 ft | 398 kts | 17° |
| 2026-05-05 03:10 | -33.51666 | 151.34561 | 11804 ft | 406 kts | 17° |
| 2026-05-05 03:10 | -33.49013 | 151.35799 | 12375 ft | 411 kts | 17° |
| 2026-05-05 03:10 | -33.46333 | 151.37048 | 12998 ft | 415 kts | 17° |
| 2026-05-05 03:10 | -33.43629 | 151.38308 | 13654 ft | 419 kts | 17° |
| 2026-05-05 03:11 | -33.40908 | 151.39571 | 14410 ft | 419 kts | 17° |
| 2026-05-05 03:11 | -33.38167 | 151.40845 | 14900 ft | 427 kts | 17° |
| 2026-05-05 03:11 | -33.35396 | 151.42135 | 15570 ft | 428 kts | 17° |
| 2026-05-05 03:11 | -33.32617 | 151.43426 | 16236 ft | 430 kts | 16° |
| 2026-05-05 03:12 | -33.29817 | 151.44726 | 16822 ft | 433 kts | 16° |
| 2026-05-05 03:12 | -33.27032 | 151.46017 | 17429 ft | 436 kts | 16° |
| 2026-05-05 03:12 | -33.24198 | 151.47330 | 18013 ft | 439 kts | 16° |
| 2026-05-05 03:12 | -33.21338 | 151.48655 | 18552 ft | 442 kts | 16° |
| 2026-05-05 03:13 | -33.18424 | 151.50005 | 19164 ft | 444 kts | 16° |
| 2026-05-05 03:13 | -33.15570 | 151.51324 | 19658 ft | 448 kts | 16° |
| 2026-05-05 03:13 | -33.12616 | 151.52688 | 20143 ft | 451 kts | 16° |
| 2026-05-05 03:13 | -33.09715 | 151.54029 | 20612 ft | 455 kts | 15° |
| 2026-05-05 03:14 | -33.06759 | 151.55393 | 21161 ft | 456 kts | 15° |
| 2026-05-05 03:14 | -33.03821 | 151.56747 | 21654 ft | 459 kts | 15° |
| 2026-05-05 03:14 | -33.00798 | 151.58140 | 22070 ft | 463 kts | 16° |
| 2026-05-05 03:14 | -32.97776 | 151.59531 | 22413 ft | 469 kts | 16° |
| 2026-05-05 03:15 | -32.94710 | 151.60942 | 22751 ft | 474 kts | 16° |
| 2026-05-05 03:15 | -32.91623 | 151.62362 | 23104 ft | 479 kts | 16° |
| 2026-05-05 03:15 | -32.88504 | 151.63795 | 23568 ft | 481 kts | 16° |
| 2026-05-05 03:15 | -32.85383 | 151.65228 | 23986 ft | 483 kts | 15° |
| 2026-05-05 03:16 | -32.82233 | 151.66674 | 24387 ft | 486 kts | 15° |
| 2026-05-05 03:16 | -32.79074 | 151.68122 | 24774 ft | 488 kts | 15° |
| 2026-05-05 03:16 | -32.75900 | 151.69576 | 25185 ft | 490 kts | 15° |
| 2026-05-05 03:16 | -32.72711 | 151.71036 | 25538 ft | 492 kts | 15° |
| 2026-05-05 03:17 | -32.69512 | 151.72499 | 25880 ft | 494 kts | 15° |
| 2026-05-05 03:17 | -32.66289 | 151.73972 | 26199 ft | 497 kts | 15° |
| 2026-05-05 03:17 | -32.63064 | 151.75445 | 26517 ft | 499 kts | 14° |
| 2026-05-05 03:17 | -32.59817 | 151.76926 | 26818 ft | 500 kts | 14° |
| 2026-05-05 03:18 | -32.56560 | 151.78411 | 27106 ft | 502 kts | 14° |
| 2026-05-05 03:18 | -32.53292 | 151.79900 | 27377 ft | 504 kts | 14° |
| 2026-05-05 03:18 | -32.50017 | 151.81391 | 27705 ft | 504 kts | 14° |
| 2026-05-05 03:18 | -32.46744 | 151.82880 | 28123 ft | 502 kts | 14° |
| 2026-05-05 03:19 | -32.40232 | 151.85839 | 28864 ft | 500 kts | 13° |
| 2026-05-05 03:19 | -32.36989 | 151.87312 | 29235 ft | 498 kts | 13° |
| 2026-05-05 03:19 | -32.33766 | 151.88773 | 29606 ft | 496 kts | 13° |
| 2026-05-05 03:20 | -32.30576 | 151.90218 | 29861 ft | 497 kts | 13° |
| 2026-05-05 03:20 | -32.27341 | 151.91682 | 30103 ft | 498 kts | 13° |
| 2026-05-05 03:20 | -32.24071 | 151.93162 | 30453 ft | 496 kts | 13° |
| 2026-05-05 03:20 | -32.20905 | 151.94593 | 30826 ft | 493 kts | 13° |
| 2026-05-05 03:21 | -32.17711 | 151.96037 | 31148 ft | 491 kts | 12° |
| 2026-05-05 03:21 | -32.14523 | 151.97476 | 31418 ft | 490 kts | 12° |
| 2026-05-05 03:21 | -32.11346 | 151.98909 | 31717 ft | 488 kts | 12° |
| 2026-05-05 03:21 | -32.08178 | 152.00337 | 31974 ft | 487 kts | 12° |
| 2026-05-05 03:22 | -32.05010 | 152.01764 | 32191 ft | 486 kts | 12° |
| 2026-05-05 03:22 | -32.01860 | 152.03183 | 32469 ft | 484 kts | 11° |
| 2026-05-05 03:22 | -31.98717 | 152.04596 | 32638 ft | 484 kts | 11° |
| 2026-05-05 03:22 | -31.95574 | 152.06008 | 32865 ft | 482 kts | 11° |
| 2026-05-05 03:23 | -31.92449 | 152.07412 | 33079 ft | 480 kts | 11° |
| 2026-05-05 03:23 | -31.89321 | 152.08815 | 33118 ft | 481 kts | 11° |
| 2026-05-05 03:23 | -31.83070 | 152.11617 | 33116 ft | 481 kts | 11° |
| 2026-05-05 03:24 | -31.76825 | 152.14412 | 33115 ft | 480 kts | 11° |
| 2026-05-05 03:24 | -31.70581 | 152.17204 | 33115 ft | 480 kts | 11° |
| 2026-05-05 03:25 | -31.64323 | 152.19997 | 33115 ft | 482 kts | 11° |
| 2026-05-05 03:25 | -31.58052 | 152.22792 | 33114 ft | 482 kts | 11° |
| 2026-05-05 03:26 | -31.52847 | 152.25109 | 33113 ft | 481 kts | 11° |
| 2026-05-05 03:26 | -31.46581 | 152.27895 | 33110 ft | 482 kts | 10° |
| 2026-05-05 03:27 | -31.40312 | 152.30678 | 33111 ft | 482 kts | 10° |
| 2026-05-05 03:27 | -31.34046 | 152.33455 | 33110 ft | 481 kts | 10° |
| 2026-05-05 03:28 | -31.27784 | 152.36229 | 33111 ft | 481 kts | 10° |
| 2026-05-05 03:28 | -31.21506 | 152.39003 | 33108 ft | 483 kts | 10° |
| 2026-05-05 03:29 | -31.15226 | 152.41776 | 33105 ft | 483 kts | 10° |
| 2026-05-05 03:29 | -31.08942 | 152.44555 | 33104 ft | 483 kts | 10° |
| 2026-05-05 03:30 | -31.02661 | 152.47342 | 33098 ft | 483 kts | 10° |
| 2026-05-05 03:30 | -30.96370 | 152.50110 | 33097 ft | 484 kts | 10° |
| 2026-05-05 03:31 | -30.90058 | 152.52882 | 33095 ft | 484 kts | 10° |
| 2026-05-05 03:31 | -30.83755 | 152.55648 | 33094 ft | 484 kts | 10° |
| 2026-05-05 03:32 | -30.77474 | 152.58496 | 33092 ft | 486 kts | 12° |
| 2026-05-05 03:32 | -30.71305 | 152.61684 | 33090 ft | 489 kts | 13° |
| 2026-05-05 03:33 | -30.65087 | 152.64910 | 33088 ft | 490 kts | 13° |
| 2026-05-05 03:33 | -30.58851 | 152.68112 | 33087 ft | 489 kts | 13° |
| 2026-05-05 03:34 | -30.52627 | 152.71292 | 33086 ft | 489 kts | 13° |
| 2026-05-05 03:34 | -30.46404 | 152.74475 | 33084 ft | 489 kts | 13° |